createdAt,value
2023-02-15T00:00:11.651Z,8.50
2023-02-15T00:02:39.284Z,8.50
2023-02-15T00:05:06.882Z,8.50
2023-02-15T00:07:33.827Z,8.50
2023-02-15T00:10:00.853Z,8.50
2023-02-15T00:12:27.798Z,8.50
2023-02-15T00:14:54.752Z,8.40
2023-02-15T00:17:22.456Z,8.30
2023-02-15T00:19:49.406Z,8.30
2023-02-15T00:22:16.390Z,8.20
2023-02-15T00:24:43.294Z,8.20
2023-02-15T00:27:10.343Z,8.20
2023-02-15T00:29:37.311Z,8.10
2023-02-15T00:32:04.411Z,8.10
2023-02-15T00:34:31.414Z,8.10
2023-02-15T00:36:58.577Z,8.10
2023-02-15T00:39:25.496Z,8.10
2023-02-15T00:41:52.528Z,8.00
2023-02-15T00:44:19.498Z,8.00
2023-02-15T00:46:46.438Z,8.00
2023-02-15T00:49:13.347Z,8.00
2023-02-15T00:51:40.562Z,8.00
2023-02-15T00:54:07.996Z,8.10
2023-02-15T00:56:34.894Z,8.10
2023-02-15T00:59:01.832Z,8.10
2023-02-15T01:01:28.871Z,8.00
2023-02-15T01:03:55.911Z,8.10
2023-02-15T01:06:22.845Z,8.00
2023-02-15T01:08:50.010Z,8.00
2023-02-15T01:11:23.249Z,8.00
2023-02-15T01:13:55.612Z,7.90
2023-02-15T01:16:24.099Z,7.90
2023-02-15T01:18:51.654Z,7.80
2023-02-15T01:21:21.476Z,7.70
2023-02-15T01:23:49.132Z,7.70
2023-02-15T01:26:16.289Z,7.60
2023-02-15T01:28:43.413Z,7.50
2023-02-15T01:31:13.027Z,7.50
2023-02-15T01:33:42.724Z,7.50
2023-02-15T01:36:09.909Z,7.40
2023-02-15T01:38:37.265Z,7.30
2023-02-15T01:41:23.104Z,7.30
2023-02-15T01:44:01.549Z,7.30
2023-02-15T01:46:51.809Z,7.30
2023-02-15T01:49:22.145Z,7.20
2023-02-15T01:51:52.229Z,7.20
2023-02-15T01:54:32.559Z,7.10
2023-02-15T01:57:20.374Z,7.10
2023-02-15T01:59:51.864Z,7.10
2023-02-15T02:02:21.887Z,7.00
2023-02-15T02:04:52.059Z,7.10
2023-02-15T02:07:23.278Z,7.10
2023-02-15T02:09:51.150Z,7.10
2023-02-15T02:12:19.538Z,7.10
2023-02-15T02:14:48.213Z,7.10
2023-02-15T02:17:25.192Z,7.10
2023-02-15T02:20:26.173Z,7.20
2023-02-15T02:23:25.385Z,7.10
2023-02-15T02:26:11.108Z,7.10
2023-02-15T02:28:58.718Z,7.10
2023-02-15T02:31:36.719Z,7.10
2023-02-15T02:34:34.602Z,7.10
2023-02-15T02:37:06.748Z,7.10
2023-02-15T02:39:55.476Z,7.10
2023-02-15T02:42:28.392Z,7.20
2023-02-15T02:45:06.569Z,7.20
2023-02-15T02:47:54.750Z,7.20
2023-02-15T02:50:30.224Z,7.20
2023-02-15T02:52:59.035Z,7.20
2023-02-15T02:55:39.316Z,7.20
2023-02-15T02:58:15.343Z,7.20
2023-02-15T03:01:06.776Z,7.20
2023-02-15T03:03:48.191Z,7.20
2023-02-15T03:06:24.978Z,7.10
2023-02-15T03:08:59.491Z,7.20
2023-02-15T03:11:26.478Z,7.20
2023-02-15T03:13:53.685Z,7.30
2023-02-15T03:16:28.497Z,7.30
2023-02-15T03:19:15.163Z,7.40
2023-02-15T03:21:58.582Z,7.40
2023-02-15T03:24:32.715Z,7.40
2023-02-15T03:27:00.820Z,7.50
2023-02-15T03:29:29.832Z,7.50
2023-02-15T03:32:01.774Z,7.50
2023-02-15T03:34:29.208Z,7.50
2023-02-15T03:37:10.924Z,7.50
2023-02-15T03:39:56.338Z,7.50
2023-02-15T03:42:34.098Z,7.50
2023-02-15T03:45:12.286Z,7.50
2023-02-15T03:47:43.983Z,7.50
2023-02-15T03:50:40.248Z,7.40
2023-02-15T03:53:11.714Z,7.40
2023-02-15T03:55:38.730Z,7.40
2023-02-15T03:58:24.187Z,7.40
2023-02-15T04:01:19.073Z,7.40
2023-02-15T04:04:12.583Z,7.40
2023-02-15T04:06:39.485Z,7.40
2023-02-15T04:09:24.969Z,7.40
2023-02-15T04:11:52.400Z,7.40
2023-02-15T04:14:37.720Z,7.40
2023-02-15T04:17:07.473Z,7.30
2023-02-15T04:19:52.726Z,7.30
2023-02-15T04:22:38.433Z,7.30
2023-02-15T04:25:12.638Z,7.20
2023-02-15T04:27:43.633Z,7.20
2023-02-15T04:30:11.749Z,7.20
2023-02-15T04:32:39.554Z,7.20
2023-02-15T04:35:07.871Z,7.20
2023-02-15T04:37:34.842Z,7.10
2023-02-15T04:40:02.128Z,7.10
2023-02-15T04:42:29.476Z,7.10
2023-02-15T04:45:11.692Z,7.00
2023-02-15T04:47:38.601Z,7.00
2023-02-15T04:50:06.147Z,7.00
2023-02-15T04:52:33.141Z,7.00
2023-02-15T04:55:00.090Z,7.00
2023-02-15T04:57:27.043Z,7.00
2023-02-15T04:59:54.045Z,7.00
2023-02-15T05:02:21.476Z,7.00
2023-02-15T05:04:48.499Z,7.00
2023-02-15T05:07:15.854Z,6.90
2023-02-15T05:09:42.855Z,6.90
2023-02-15T05:12:09.780Z,6.90
2023-02-15T05:14:36.674Z,6.80
2023-02-15T05:17:04.390Z,6.80
2023-02-15T05:19:31.315Z,6.80
2023-02-15T05:21:58.296Z,6.80
2023-02-15T05:24:43.943Z,6.70
2023-02-15T05:27:34.335Z,6.80
2023-02-15T05:30:01.420Z,6.70
2023-02-15T05:32:28.492Z,6.70
2023-02-15T05:34:55.474Z,6.70
2023-02-15T05:37:22.360Z,6.70
2023-02-15T05:39:49.286Z,6.70
2023-02-15T05:42:16.364Z,6.70
2023-02-15T05:44:43.380Z,6.60
2023-02-15T05:47:10.251Z,6.60
2023-02-15T05:49:37.301Z,6.60
2023-02-15T05:52:04.705Z,6.60
2023-02-15T05:54:31.740Z,6.50
2023-02-15T05:56:58.799Z,6.50
2023-02-15T05:59:25.702Z,6.50
2023-02-15T06:01:52.692Z,6.50
2023-02-15T06:04:19.658Z,6.50
2023-02-15T06:06:46.644Z,6.50
2023-02-15T06:09:14.344Z,6.50
2023-02-15T06:11:41.651Z,6.50
2023-02-15T06:14:08.542Z,6.50
2023-02-15T06:16:35.477Z,6.50
2023-02-15T06:19:02.946Z,6.40
2023-02-15T06:21:31.325Z,6.40
2023-02-15T06:23:58.655Z,6.40
2023-02-15T06:26:25.622Z,6.30
2023-02-15T06:28:52.538Z,6.30
2023-02-15T06:31:19.657Z,6.30
2023-02-15T06:33:46.662Z,6.30
2023-02-15T06:36:13.720Z,6.30
2023-02-15T06:38:40.722Z,6.30
2023-02-15T06:41:07.657Z,6.30
2023-02-15T06:43:35.286Z,6.30
2023-02-15T06:46:02.610Z,6.30
2023-02-15T06:48:30.030Z,6.30
2023-02-15T06:50:57.107Z,6.30
2023-02-15T06:53:23.997Z,6.20
2023-02-15T06:55:50.939Z,6.30
2023-02-15T06:58:18.097Z,6.30
2023-02-15T07:00:45.014Z,6.30
2023-02-15T07:03:15.706Z,6.30
2023-02-15T07:05:42.698Z,6.20
2023-02-15T07:08:09.634Z,6.30
2023-02-15T07:10:36.570Z,6.20
2023-02-15T07:13:03.645Z,6.20
2023-02-15T07:15:30.807Z,6.20
2023-02-15T07:17:59.794Z,6.30
2023-02-15T07:20:26.873Z,6.30
2023-02-15T07:22:53.964Z,6.30
2023-02-15T07:25:21.030Z,6.40
2023-02-15T07:27:48.177Z,6.30
2023-02-15T07:30:17.764Z,6.30
2023-02-15T07:33:05.495Z,6.30
2023-02-15T07:35:33.494Z,6.30
2023-02-15T07:38:00.624Z,6.30
2023-02-15T07:40:27.649Z,6.30
2023-02-15T07:42:55.954Z,6.30
2023-02-15T07:45:22.964Z,6.40
2023-02-15T07:47:49.965Z,6.40
2023-02-15T07:50:17.058Z,6.50
2023-02-15T07:52:43.978Z,6.50
2023-02-15T07:55:13.752Z,6.50
2023-02-15T07:57:47.942Z,6.60
2023-02-15T08:00:16.496Z,6.50
2023-02-15T08:02:43.812Z,6.50
2023-02-15T08:05:11.290Z,6.60
2023-02-15T08:07:38.135Z,6.60
2023-02-15T08:10:05.610Z,6.70
2023-02-15T08:12:33.299Z,6.80
2023-02-15T08:15:00.230Z,6.80
2023-02-15T08:17:27.098Z,6.70
2023-02-15T08:19:53.957Z,6.70
2023-02-15T08:22:20.842Z,6.80
2023-02-15T08:24:48.398Z,6.80
2023-02-15T08:27:15.282Z,6.90
2023-02-15T08:29:43.273Z,6.90
2023-02-15T08:32:13.111Z,6.90
2023-02-15T08:34:42.866Z,6.90
2023-02-15T08:37:11.259Z,7.00
2023-02-15T08:39:38.338Z,7.00
2023-02-15T08:42:05.349Z,7.00
2023-02-15T08:44:32.816Z,7.00
2023-02-15T08:47:04.622Z,7.00
2023-02-15T08:49:32.911Z,7.00
2023-02-15T08:52:00.660Z,7.00
2023-02-15T08:54:28.254Z,7.00
2023-02-15T08:56:55.155Z,7.10
2023-02-15T08:59:24.189Z,7.10
2023-02-15T09:01:52.680Z,7.10
2023-02-15T09:04:20.274Z,7.20
2023-02-15T09:06:49.737Z,7.20
2023-02-15T09:09:18.254Z,7.30
2023-02-15T09:11:47.371Z,7.40
2023-02-15T09:14:16.968Z,7.40
2023-02-15T09:16:51.140Z,7.50
2023-02-15T09:19:20.809Z,7.50
2023-02-15T09:21:48.094Z,7.60
2023-02-15T09:24:16.998Z,7.60
2023-02-15T09:26:46.773Z,7.70
2023-02-15T09:29:15.232Z,7.70
2023-02-15T09:31:45.728Z,7.80
2023-02-15T09:34:18.246Z,7.70
2023-02-15T09:36:46.329Z,7.60
2023-02-15T09:39:14.523Z,7.60
2023-02-15T09:41:51.310Z,7.60
2023-02-15T09:44:37.408Z,7.50
2023-02-15T09:47:23.407Z,7.60
2023-02-15T09:50:11.967Z,7.50
2023-02-15T09:52:56.901Z,7.50
2023-02-15T09:55:52.517Z,7.60
2023-02-15T09:58:48.398Z,7.70
2023-02-15T10:01:32.026Z,7.80
2023-02-15T10:04:31.621Z,8.00
2023-02-15T10:07:17.750Z,8.10
2023-02-15T10:10:29.561Z,8.20
2023-02-15T10:13:23.407Z,8.30
2023-02-15T10:16:09.014Z,8.40
2023-02-15T10:18:53.903Z,8.40
2023-02-15T10:21:36.254Z,8.40
2023-02-15T10:24:46.527Z,8.40
2023-02-15T10:27:22.136Z,8.40
2023-02-15T10:30:10.935Z,8.30
2023-02-15T10:32:47.571Z,8.40
2023-02-15T10:35:29.364Z,8.50
2023-02-15T10:38:03.578Z,8.50
2023-02-15T10:40:36.314Z,8.50
2023-02-15T10:43:10.243Z,8.60
2023-02-15T10:45:58.540Z,8.60
2023-02-15T10:48:36.798Z,8.60
2023-02-15T10:51:06.533Z,8.60
2023-02-15T10:53:58.269Z,8.70
2023-02-15T10:56:47.802Z,8.70
2023-02-15T10:59:44.229Z,8.60
2023-02-15T11:02:44.864Z,8.60
2023-02-15T11:05:22.367Z,8.60
2023-02-15T11:07:52.118Z,8.50
2023-02-15T11:10:36.245Z,8.50
2023-02-15T11:13:10.281Z,8.50
2023-02-15T11:15:58.414Z,8.50
2023-02-15T11:18:41.357Z,8.50
2023-02-15T11:21:17.650Z,8.50
2023-02-15T11:23:45.893Z,8.50
2023-02-15T11:26:38.629Z,8.50
2023-02-15T11:29:28.836Z,8.50
2023-02-15T11:31:59.563Z,8.50
2023-02-15T11:34:30.790Z,8.50
2023-02-15T11:37:03.188Z,8.50
2023-02-15T11:39:32.873Z,8.50
2023-02-15T11:42:23.309Z,8.40
2023-02-15T11:45:08.727Z,8.40
2023-02-15T11:47:36.049Z,8.40
2023-02-15T11:50:04.075Z,8.40
2023-02-15T11:52:31.448Z,8.30
2023-02-15T11:54:58.969Z,8.40
2023-02-15T11:57:41.476Z,8.30
2023-02-15T12:00:37.061Z,8.40
2023-02-15T12:03:39.651Z,8.40
2023-02-15T12:06:07.703Z,8.50
2023-02-15T12:08:45.167Z,8.50
2023-02-15T12:11:31.205Z,8.60
2023-02-15T12:14:17.026Z,8.60
2023-02-15T12:16:52.137Z,8.70
2023-02-15T12:19:30.929Z,8.70
2023-02-15T12:21:59.185Z,8.80
2023-02-15T12:24:33.515Z,8.90
2023-02-15T12:27:25.671Z,9.00
2023-02-15T12:30:03.296Z,9.30
2023-02-15T12:32:35.438Z,9.50
2023-02-15T12:35:17.598Z,9.50
2023-02-15T12:37:56.370Z,9.50
2023-02-15T12:40:31.514Z,9.50
2023-02-15T12:42:59.459Z,9.60
2023-02-15T12:45:30.179Z,9.50
2023-02-15T12:48:11.059Z,9.80
2023-02-15T12:50:38.469Z,10.40
2023-02-15T12:53:16.771Z,11.40
2023-02-15T12:55:58.549Z,11.50
2023-02-15T12:58:27.962Z,10.80
2023-02-15T13:01:12.301Z,10.70
2023-02-15T13:03:59.422Z,10.70
2023-02-15T13:06:28.175Z,10.70
2023-02-15T13:09:07.302Z,10.70
2023-02-15T13:11:38.702Z,11.30
2023-02-15T13:14:19.356Z,11.50
2023-02-15T13:16:49.612Z,11.40
2023-02-15T13:19:43.466Z,11.60
2023-02-15T13:22:17.109Z,12.00
2023-02-15T13:24:49.481Z,11.90
2023-02-15T13:27:22.394Z,13.00
2023-02-15T13:30:00.922Z,13.50
2023-02-15T13:32:34.104Z,12.90
2023-02-15T13:35:06.389Z,13.30
2023-02-15T13:37:46.585Z,13.40
2023-02-15T13:40:21.836Z,13.00
2023-02-15T13:43:00.908Z,13.70
2023-02-15T13:45:40.181Z,13.70
2023-02-15T13:48:07.007Z,12.90
2023-02-15T13:50:36.625Z,12.30
2023-02-15T13:53:21.702Z,12.30
2023-02-15T13:56:26.020Z,12.20
2023-02-15T13:59:12.136Z,11.80
2023-02-15T14:02:04.855Z,12.00
2023-02-15T14:04:50.892Z,12.00
2023-02-15T14:07:24.185Z,12.30
2023-02-15T14:10:15.907Z,12.00
2023-02-15T14:13:00.018Z,12.30
2023-02-15T14:15:59.650Z,12.30
2023-02-15T14:18:41.442Z,12.00
2023-02-15T14:21:11.902Z,11.80
2023-02-15T14:23:59.025Z,11.90
2023-02-15T14:27:15.141Z,11.70
2023-02-15T14:29:45.629Z,11.50
2023-02-15T14:32:33.730Z,11.20
2023-02-15T14:35:04.191Z,11.30
2023-02-15T14:37:41.009Z,11.10
2023-02-15T14:40:38.094Z,10.80
2023-02-15T14:43:20.797Z,10.70
2023-02-15T14:45:55.744Z,10.70
2023-02-15T14:48:31.295Z,10.50
2023-02-15T14:50:58.326Z,10.40
2023-02-15T14:53:29.642Z,10.50
2023-02-15T14:56:11.926Z,10.60
2023-02-15T14:58:56.485Z,10.50
2023-02-15T15:01:32.738Z,10.70
2023-02-15T15:04:01.168Z,10.50
2023-02-15T15:06:31.692Z,10.60
2023-02-15T15:09:22.804Z,10.60
2023-02-15T15:12:14.378Z,10.40
2023-02-15T15:14:46.779Z,10.40
2023-02-15T15:17:41.644Z,10.30
2023-02-15T15:20:26.918Z,10.40
2023-02-15T15:23:29.493Z,10.30
2023-02-15T15:26:26.815Z,10.30
2023-02-15T15:29:00.896Z,10.20
2023-02-15T15:31:33.593Z,10.00
2023-02-15T15:34:22.817Z,9.80
2023-02-15T15:37:10.622Z,9.80
2023-02-15T15:40:08.305Z,9.70
2023-02-15T15:42:45.424Z,9.80
2023-02-15T15:45:42.357Z,9.60
2023-02-15T15:48:31.524Z,9.50
2023-02-15T15:51:01.363Z,9.40
2023-02-15T15:53:32.689Z,9.40
2023-02-15T15:56:07.923Z,9.30
2023-02-15T15:58:36.109Z,9.30
2023-02-15T16:01:14.643Z,9.30
2023-02-15T16:03:53.498Z,9.20
2023-02-15T16:06:39.534Z,9.30
2023-02-15T16:09:16.943Z,9.20
2023-02-15T16:11:44.495Z,9.20
2023-02-15T16:14:25.800Z,9.20
2023-02-15T16:16:55.896Z,9.20
2023-02-15T16:19:26.748Z,9.20
2023-02-15T16:21:56.080Z,9.20
2023-02-15T16:24:37.897Z,9.20
2023-02-15T16:27:17.290Z,9.30
2023-02-15T16:29:44.247Z,9.20
2023-02-15T16:32:38.662Z,9.20
2023-02-15T16:35:16.406Z,9.10
2023-02-15T16:37:43.331Z,9.10
2023-02-15T16:40:26.404Z,9.10
2023-02-15T16:42:56.967Z,8.90
2023-02-15T16:45:27.202Z,8.90
2023-02-15T16:47:58.479Z,8.80
2023-02-15T16:50:50.222Z,8.80
2023-02-15T16:53:22.567Z,8.80
2023-02-15T16:55:53.622Z,8.70
2023-02-15T16:58:27.483Z,8.70
2023-02-15T17:01:02.731Z,8.70
2023-02-15T17:03:30.821Z,8.70
2023-02-15T17:06:00.704Z,8.60
2023-02-15T17:08:43.819Z,8.60
2023-02-15T17:11:34.687Z,8.60
2023-02-15T17:14:09.956Z,8.50
2023-02-15T17:16:50.121Z,8.50
2023-02-15T17:19:17.662Z,8.50
2023-02-15T17:21:54.048Z,8.50
2023-02-15T17:24:42.080Z,8.40
2023-02-15T17:27:19.251Z,8.40
2023-02-15T17:30:18.542Z,8.40
2023-02-15T17:33:00.755Z,8.30
2023-02-15T17:35:33.241Z,8.30
2023-02-15T17:38:21.580Z,8.30
2023-02-15T17:40:48.662Z,8.20
2023-02-15T17:43:15.536Z,8.30
2023-02-15T17:45:50.595Z,8.30
2023-02-15T17:48:35.531Z,8.30
2023-02-15T17:51:08.277Z,8.30
2023-02-15T17:53:35.179Z,8.30
2023-02-15T17:56:10.953Z,8.20
2023-02-15T17:58:42.054Z,8.20
2023-02-15T18:01:36.824Z,8.20
2023-02-15T18:04:22.708Z,8.20
2023-02-15T18:07:09.292Z,8.20
2023-02-15T18:09:55.076Z,8.20
2023-02-15T18:12:33.713Z,8.10
2023-02-15T18:15:02.195Z,8.10
2023-02-15T18:17:48.556Z,8.10
2023-02-15T18:20:24.043Z,8.00
2023-02-15T18:22:52.362Z,8.00
2023-02-15T18:25:23.640Z,8.00
2023-02-15T18:27:52.834Z,7.90
2023-02-15T18:30:23.299Z,7.90
2023-02-15T18:32:54.025Z,7.80
2023-02-15T18:35:24.459Z,7.90
2023-02-15T18:37:53.322Z,7.80
2023-02-15T18:40:27.013Z,7.80
2023-02-15T18:42:56.943Z,7.80
2023-02-15T18:45:32.530Z,7.80
2023-02-15T18:47:59.579Z,7.80
2023-02-15T18:50:30.146Z,7.80
2023-02-15T18:52:57.385Z,7.70
2023-02-15T18:55:28.226Z,7.80
2023-02-15T18:57:57.316Z,7.70
2023-02-15T19:00:28.541Z,7.80
2023-02-15T19:02:56.838Z,7.80
2023-02-15T19:05:27.708Z,7.80
2023-02-15T19:07:56.533Z,7.80
2023-02-15T19:10:27.381Z,7.80
2023-02-15T19:12:57.768Z,7.80
2023-02-15T19:15:31.518Z,7.80
2023-02-15T19:17:59.930Z,7.80
2023-02-15T19:20:32.447Z,7.80
2023-02-15T19:23:01.976Z,7.80
2023-02-15T19:25:32.033Z,7.80
2023-02-15T19:27:59.108Z,7.80
2023-02-15T19:30:30.286Z,7.80
2023-02-15T19:33:02.326Z,7.80
2023-02-15T19:35:35.839Z,7.80
2023-02-15T19:38:08.164Z,7.80
2023-02-15T19:40:36.734Z,7.80
2023-02-15T19:43:06.766Z,7.80
2023-02-15T19:45:34.160Z,7.80
2023-02-15T19:48:03.432Z,7.80
2023-02-15T19:50:33.856Z,7.90
2023-02-15T19:53:05.757Z,7.90
2023-02-15T19:55:38.351Z,7.90
2023-02-15T19:58:13.231Z,7.90
2023-02-15T20:00:41.570Z,7.90
2023-02-15T20:03:09.414Z,7.90
2023-02-15T20:05:41.755Z,7.90
2023-02-15T20:08:18.095Z,7.90
2023-02-15T20:10:47.163Z,7.90
2023-02-15T20:13:21.031Z,8.00
2023-02-15T20:15:50.587Z,8.00
2023-02-15T20:18:22.424Z,8.00
2023-02-15T20:20:56.199Z,8.10
2023-02-15T20:23:30.904Z,8.10
2023-02-15T20:26:00.164Z,8.10
2023-02-15T20:28:31.656Z,8.10
2023-02-15T20:30:59.739Z,8.10
2023-02-15T20:33:30.136Z,8.10
2023-02-15T20:36:01.099Z,8.10
2023-02-15T20:38:31.370Z,8.10
2023-02-15T20:41:19.871Z,8.10
2023-02-15T20:43:49.389Z,8.10
2023-02-15T20:46:19.763Z,8.10
2023-02-15T20:48:48.832Z,8.10
2023-02-15T20:51:24.952Z,8.10
2023-02-15T20:53:53.962Z,8.10
2023-02-15T20:56:24.533Z,8.00
2023-02-15T20:58:54.380Z,8.00
2023-02-15T21:01:29.962Z,7.90
2023-02-15T21:04:00.600Z,7.90
2023-02-15T21:06:29.116Z,7.90
2023-02-15T21:08:57.080Z,7.80
2023-02-15T21:11:27.871Z,7.80
2023-02-15T21:13:56.491Z,7.80
2023-02-15T21:16:24.420Z,7.80
2023-02-15T21:18:58.057Z,7.80
2023-02-15T21:21:25.614Z,7.90
2023-02-15T21:23:53.937Z,7.90
2023-02-15T21:26:24.406Z,8.00
2023-02-15T21:28:52.009Z,8.00
2023-02-15T21:31:24.884Z,8.00
2023-02-15T21:33:53.362Z,8.00
2023-02-15T21:36:25.698Z,8.10
2023-02-15T21:38:59.455Z,8.10
2023-02-15T21:41:46.899Z,8.10
2023-02-15T21:44:39.678Z,8.10
2023-02-15T21:47:41.216Z,8.10
2023-02-15T21:50:30.103Z,8.10
2023-02-15T21:52:59.076Z,8.10
2023-02-15T21:55:27.159Z,8.10
2023-02-15T21:57:54.197Z,8.20
2023-02-15T22:00:24.774Z,8.10
2023-02-15T22:02:56.485Z,8.10
2023-02-15T22:05:33.706Z,8.20
2023-02-15T22:08:01.496Z,8.20
2023-02-15T22:10:32.981Z,8.20
2023-02-15T22:13:01.731Z,8.20
2023-02-15T22:15:35.661Z,8.20
2023-02-15T22:18:03.468Z,8.20
2023-02-15T22:20:30.840Z,8.20
2023-02-15T22:22:57.990Z,8.20
2023-02-15T22:25:26.515Z,8.20
2023-02-15T22:27:55.248Z,8.30
2023-02-15T22:30:30.054Z,8.30
2023-02-15T22:32:58.934Z,8.30
2023-02-15T22:35:27.622Z,8.30
2023-02-15T22:37:54.747Z,8.30
2023-02-15T22:40:24.532Z,8.30
